Fort Saint John, Canada
Current Conditions -  °F | °C
As of 3:00 PM on Thursday 23 Oct 2014 (Local Time) from CYXJ Reporting Station
Light Snow Light Snow  
Wind Chill: -5°   Ceiling: 1000
Heat Index: -1°   Visibility: 1mi
Dew Point: -2°   Wind: 8mph
Humidity: 93%   Direction: 290°WNW
Pressure: 29.57"   Gusts: NA
Location:  56.25°N, 120.85°W
Report Text: CYXJ 232100Z 29007KT 1SM -SN BKN010 OVC023 M01/M02 A2957 RMK ST6ST2 SLP047
Loading
Personal Weather Stations






























Interactive Weather Map
Tropical Storm Tracking
New forecast layout! Learn more

10-Day Weather Forecast

Advertisements
Track Severe Weather on mobile